sensor_id;sensor_type;location;lat;lon;timestamp;pressure;altitude;pressure_sealevel;temperature;humidity
48027;BME280;50714;49.208;5.364;2023-12-20T00:07:29;99610.22;;;6.36;100.00
48027;BME280;50714;49.208;5.364;2023-12-20T00:17:29;99637.47;;;6.40;100.00
48027;BME280;50714;49.208;5.364;2023-12-20T00:27:30;99627.59;;;6.40;100.00
48027;BME280;50714;49.208;5.364;2023-12-20T00:37:30;99647.19;;;6.41;100.00
48027;BME280;50714;49.208;5.364;2023-12-20T00:47:31;99646.00;;;6.43;100.00
48027;BME280;50714;49.208;5.364;2023-12-20T00:57:31;99644.66;;;6.47;100.00
48027;BME280;50714;49.208;5.364;2023-12-20T01:07:32;99652.88;;;6.46;100.00
48027;BME280;50714;49.208;5.364;2023-12-20T01:17:32;99650.03;;;6.47;100.00
48027;BME280;50714;49.208;5.364;2023-12-20T01:27:32;99666.78;;;6.49;100.00
48027;BME280;50714;49.208;5.364;2023-12-20T01:37:32;99670.97;;;6.52;100.00
48027;BME280;50714;49.208;5.364;2023-12-20T01:47:33;99696.94;;;6.52;100.00
48027;BME280;50714;49.208;5.364;2023-12-20T01:57:33;99699.78;;;6.58;100.00
48027;BME280;50714;49.208;5.364;2023-12-20T02:07:34;99694.06;;;6.61;100.00
48027;BME280;50714;49.208;5.364;2023-12-20T02:17:38;99717.81;;;6.64;100.00
48027;BME280;50714;49.208;5.364;2023-12-20T02:27:40;99710.63;;;6.65;100.00
48027;BME280;50714;49.208;5.364;2023-12-20T02:37:40;99726.38;;;6.68;100.00
48027;BME280;50714;49.208;5.364;2023-12-20T02:47:40;99728.38;;;6.66;100.00
48027;BME280;50714;49.208;5.364;2023-12-20T02:57:41;99743.84;;;6.56;100.00
48027;BME280;50714;49.208;5.364;2023-12-20T03:07:44;99768.03;;;6.31;100.00
48027;BME280;50714;49.208;5.364;2023-12-20T03:17:44;99791.81;;;6.18;100.00
48027;BME280;50714;49.208;5.364;2023-12-20T03:27:44;99821.28;;;6.18;100.00
48027;BME280;50714;49.208;5.364;2023-12-20T03:37:46;99824.28;;;6.15;100.00
48027;BME280;50714;49.208;5.364;2023-12-20T03:47:46;99823.13;;;6.09;100.00
48027;BME280;50714;49.208;5.364;2023-12-20T03:57:46;99835.50;;;5.94;100.00
48027;BME280;50714;49.208;5.364;2023-12-20T04:07:47;99832.13;;;5.84;100.00
48027;BME280;50714;49.208;5.364;2023-12-20T04:17:47;99854.50;;;5.75;100.00
48027;BME280;50714;49.208;5.364;2023-12-20T04:27:47;99851.63;;;5.68;100.00
48027;BME280;50714;49.208;5.364;2023-12-20T04:37:48;99846.97;;;5.70;100.00
48027;BME280;50714;49.208;5.364;2023-12-20T04:47:49;99859.50;;;5.70;100.00
48027;BME280;50714;49.208;5.364;2023-12-20T04:57:49;99875.09;;;5.66;100.00
48027;BME280;50714;49.208;5.364;2023-12-20T05:07:50;99878.78;;;5.65;100.00
48027;BME280;50714;49.208;5.364;2023-12-20T05:17:50;99887.81;;;5.64;100.00
48027;BME280;50714;49.208;5.364;2023-12-20T05:27:50;99891.47;;;5.63;100.00
48027;BME280;50714;49.208;5.364;2023-12-20T05:37:51;99904.97;;;5.54;100.00
48027;BME280;50714;49.208;5.364;2023-12-20T05:47:51;99918.88;;;5.57;100.00
48027;BME280;50714;49.208;5.364;2023-12-20T05:57:51;99921.09;;;5.62;100.00
48027;BME280;50714;49.208;5.364;2023-12-20T06:07:52;99914.00;;;5.53;100.00
48027;BME280;50714;49.208;5.364;2023-12-20T06:17:52;99945.09;;;5.45;100.00
48027;BME280;50714;49.208;5.364;2023-12-20T06:27:52;99936.22;;;5.45;100.00
48027;BME280;50714;49.208;5.364;2023-12-20T06:37:53;99948.59;;;5.46;100.00
48027;BME280;50714;49.208;5.364;2023-12-20T06:47:53;99944.94;;;5.47;100.00
48027;BME280;50714;49.208;5.364;2023-12-20T06:57:54;99948.94;;;5.43;100.00
48027;BME280;50714;49.208;5.364;2023-12-20T07:07:55;99937.56;;;5.49;100.00
48027;BME280;50714;49.208;5.364;2023-12-20T07:17:55;99941.41;;;5.46;100.00
48027;BME280;50714;49.208;5.364;2023-12-20T07:27:55;99942.94;;;5.49;100.00
48027;BME280;50714;49.208;5.364;2023-12-20T07:37:55;99941.91;;;5.42;100.00
48027;BME280;50714;49.208;5.364;2023-12-20T07:47:56;99955.63;;;5.39;100.00
48027;BME280;50714;49.208;5.364;2023-12-20T07:57:57;99981.00;;;5.35;100.00
48027;BME280;50714;49.208;5.364;2023-12-20T08:07:58;99977.03;;;5.39;100.00
48027;BME280;50714;49.208;5.364;2023-12-20T08:17:58;99976.72;;;5.42;100.00
48027;BME280;50714;49.208;5.364;2023-12-20T08:27:59;99995.47;;;5.50;100.00
48027;BME280;50714;49.208;5.364;2023-12-20T08:37:59;99988.97;;;5.53;100.00
48027;BME280;50714;49.208;5.364;2023-12-20T08:47:59;99982.16;;;5.58;100.00
48027;BME280;50714;49.208;5.364;2023-12-20T08:58:00;99991.88;;;5.67;100.00
48027;BME280;50714;49.208;5.364;2023-12-20T09:08:00;99994.97;;;5.80;100.00
48027;BME280;50714;49.208;5.364;2023-12-20T09:18:01;99986.78;;;5.82;100.00
48027;BME280;50714;49.208;5.364;2023-12-20T09:28:01;99993.06;;;5.99;100.00
48027;BME280;50714;49.208;5.364;2023-12-20T09:38:01;99988.25;;;6.10;100.00
48027;BME280;50714;49.208;5.364;2023-12-20T09:48:03;100005.88;;;6.13;100.00
48027;BME280;50714;49.208;5.364;2023-12-20T09:58:04;100003.00;;;6.14;100.00
48027;BME280;50714;49.208;5.364;2023-12-20T10:08:06;100005.47;;;6.58;100.00
48027;BME280;50714;49.208;5.364;2023-12-20T10:18:06;99979.84;;;6.80;100.00
48027;BME280;50714;49.208;5.364;2023-12-20T10:28:16;99971.47;;;6.83;100.00
48027;BME280;50714;49.208;5.364;2023-12-20T10:38:21;99985.72;;;6.83;100.00
48027;BME280;50714;49.208;5.364;2023-12-20T10:48:22;99970.75;;;6.89;100.00
48027;BME280;50714;49.208;5.364;2023-12-20T10:58:29;99966.25;;;6.81;100.00
48027;BME280;50714;49.208;5.364;2023-12-20T11:18:30;99940.59;;;6.79;100.00
48027;BME280;50714;49.208;5.364;2023-12-20T11:28:31;99937.91;;;6.79;100.00
48027;BME280;50714;49.208;5.364;2023-12-20T11:38:37;99933.22;;;6.81;100.00
48027;BME280;50714;49.208;5.364;2023-12-20T11:48:38;99930.03;;;7.02;100.00
48027;BME280;50714;49.208;5.364;2023-12-20T11:58:40;99930.69;;;7.04;100.00
48027;BME280;50714;49.208;5.364;2023-12-20T12:08:41;99929.47;;;7.14;100.00
48027;BME280;50714;49.208;5.364;2023-12-20T12:18:42;99886.19;;;7.26;100.00
48027;BME280;50714;49.208;5.364;2023-12-20T12:28:43;99874.78;;;7.24;100.00
48027;BME280;50714;49.208;5.364;2023-12-20T12:38:44;99879.47;;;7.22;100.00
48027;BME280;50714;49.208;5.364;2023-12-20T12:48:44;99869.91;;;7.27;100.00
48027;BME280;50714;49.208;5.364;2023-12-20T12:58:45;99852.25;;;7.33;100.00
48027;BME280;50714;49.208;5.364;2023-12-20T13:08:45;99831.94;;;7.38;100.00
48027;BME280;50714;49.208;5.364;2023-12-20T13:18:46;99802.53;;;7.45;100.00
48027;BME280;50714;49.208;5.364;2023-12-20T13:28:46;99818.50;;;7.69;100.00
48027;BME280;50714;49.208;5.364;2023-12-20T13:38:46;99800.72;;;7.68;100.00
48027;BME280;50714;49.208;5.364;2023-12-20T13:48:47;99791.97;;;7.43;100.00
48027;BME280;50714;49.208;5.364;2023-12-20T13:58:47;99800.88;;;7.36;100.00
48027;BME280;50714;49.208;5.364;2023-12-20T14:08:47;99782.75;;;7.38;100.00
48027;BME280;50714;49.208;5.364;2023-12-20T14:18:48;99779.41;;;7.36;100.00
48027;BME280;50714;49.208;5.364;2023-12-20T14:28:48;99764.78;;;7.38;100.00
48027;BME280;50714;49.208;5.364;2023-12-20T14:38:49;99759.13;;;7.33;100.00
48027;BME280;50714;49.208;5.364;2023-12-20T14:48:50;99756.34;;;7.18;100.00
48027;BME280;50714;49.208;5.364;2023-12-20T14:58:50;99742.75;;;7.20;100.00
48027;BME280;50714;49.208;5.364;2023-12-20T15:08:50;99719.97;;;7.16;100.00
48027;BME280;50714;49.208;5.364;2023-12-20T15:18:52;99733.63;;;7.06;100.00
48027;BME280;50714;49.208;5.364;2023-12-20T15:28:53;99725.91;;;7.03;100.00
48027;BME280;50714;49.208;5.364;2023-12-20T15:38:54;99728.28;;;6.98;100.00
48027;BME280;50714;49.208;5.364;2023-12-20T15:48:54;99703.81;;;6.93;100.00
48027;BME280;50714;49.208;5.364;2023-12-20T15:58:55;99683.88;;;6.88;100.00
48027;BME280;50714;49.208;5.364;2023-12-20T16:08:57;99695.44;;;6.88;100.00
48027;BME280;50714;49.208;5.364;2023-12-20T16:18:57;99695.78;;;6.85;100.00
48027;BME280;50714;49.208;5.364;2023-12-20T16:28:58;99697.84;;;6.83;100.00
48027;BME280;50714;49.208;5.364;2023-12-20T16:38:58;99702.00;;;6.85;100.00
48027;BME280;50714;49.208;5.364;2023-12-20T16:48:58;99721.59;;;6.86;100.00
48027;BME280;50714;49.208;5.364;2023-12-20T16:58:59;99723.09;;;6.89;100.00
48027;BME280;50714;49.208;5.364;2023-12-20T17:08:59;99732.34;;;6.86;100.00
48027;BME280;50714;49.208;5.364;2023-12-20T17:18:59;99719.75;;;6.87;100.00
48027;BME280;50714;49.208;5.364;2023-12-20T17:29:02;99720.25;;;6.90;100.00
48027;BME280;50714;49.208;5.364;2023-12-20T17:39:02;99728.28;;;6.90;100.00
48027;BME280;50714;49.208;5.364;2023-12-20T17:49:03;99723.78;;;6.91;100.00
48027;BME280;50714;49.208;5.364;2023-12-20T17:59:04;99704.47;;;6.95;100.00
48027;BME280;50714;49.208;5.364;2023-12-20T18:09:04;99688.84;;;6.99;100.00
48027;BME280;50714;49.208;5.364;2023-12-20T18:19:05;99678.66;;;6.94;100.00
48027;BME280;50714;49.208;5.364;2023-12-20T18:29:05;99665.41;;;6.93;100.00
48027;BME280;50714;49.208;5.364;2023-12-20T18:39:05;99656.00;;;6.97;100.00
48027;BME280;50714;49.208;5.364;2023-12-20T18:49:06;99647.59;;;7.00;100.00
48027;BME280;50714;49.208;5.364;2023-12-20T18:59:07;99641.22;;;7.01;100.00
48027;BME280;50714;49.208;5.364;2023-12-20T19:09:07;99646.59;;;7.01;100.00
48027;BME280;50714;49.208;5.364;2023-12-20T19:19:08;99632.00;;;7.03;100.00
48027;BME280;50714;49.208;5.364;2023-12-20T19:29:09;99619.75;;;7.01;100.00
48027;BME280;50714;49.208;5.364;2023-12-20T19:39:10;99616.56;;;7.05;100.00
48027;BME280;50714;49.208;5.364;2023-12-20T19:49:10;99602.97;;;7.07;100.00
48027;BME280;50714;49.208;5.364;2023-12-20T19:59:10;99591.66;;;7.11;100.00
48027;BME280;50714;49.208;5.364;2023-12-20T20:09:10;99577.06;;;7.14;100.00
48027;BME280;50714;49.208;5.364;2023-12-20T20:19:11;99562.81;;;7.13;100.00
48027;BME280;50714;49.208;5.364;2023-12-20T20:29:11;99545.84;;;7.13;100.00
48027;BME280;50714;49.208;5.364;2023-12-20T20:39:11;99530.31;;;7.08;100.00
48027;BME280;50714;49.208;5.364;2023-12-20T20:49:13;99519.38;;;7.10;100.00
48027;BME280;50714;49.208;5.364;2023-12-20T20:59:15;99509.13;;;7.13;100.00
48027;BME280;50714;49.208;5.364;2023-12-20T21:09:16;99494.69;;;7.14;100.00
48027;BME280;50714;49.208;5.364;2023-12-20T21:19:16;99468.63;;;7.23;100.00
48027;BME280;50714;49.208;5.364;2023-12-20T21:29:16;99460.69;;;7.30;100.00
48027;BME280;50714;49.208;5.364;2023-12-20T21:39:17;99453.06;;;7.33;100.00
48027;BME280;50714;49.208;5.364;2023-12-20T21:49:19;99454.75;;;7.34;100.00
48027;BME280;50714;49.208;5.364;2023-12-20T21:59:19;99428.66;;;7.28;100.00
48027;BME280;50714;49.208;5.364;2023-12-20T22:09:22;99408.38;;;7.26;100.00
48027;BME280;50714;49.208;5.364;2023-12-20T22:19:22;99404.84;;;7.25;100.00
48027;BME280;50714;49.208;5.364;2023-12-20T22:29:22;99393.94;;;7.27;100.00
48027;BME280;50714;49.208;5.364;2023-12-20T22:39:25;99402.19;;;7.25;100.00
48027;BME280;50714;49.208;5.364;2023-12-20T22:49:26;99382.84;;;7.30;100.00
48027;BME280;50714;49.208;5.364;2023-12-20T22:59:26;99353.97;;;7.32;100.00
48027;BME280;50714;49.208;5.364;2023-12-20T23:09:26;99343.66;;;7.35;100.00
48027;BME280;50714;49.208;5.364;2023-12-20T23:19:27;99329.22;;;7.36;100.00
48027;BME280;50714;49.208;5.364;2023-12-20T23:29:29;99332.19;;;7.41;100.00
48027;BME280;50714;49.208;5.364;2023-12-20T23:39:29;99319.59;;;7.42;100.00
48027;BME280;50714;49.208;5.364;2023-12-20T23:49:30;99303.47;;;7.42;100.00
48027;BME280;50714;49.208;5.364;2023-12-20T23:59:30;99313.66;;;7.46;100.00
